createdAt,value
2018-12-02T00:00:24.531Z,11.45
2018-12-02T00:02:53.348Z,12.55
2018-12-02T00:05:21.677Z,12.30
2018-12-02T00:07:49.970Z,10.80
2018-12-02T00:10:19.059Z,11.95
2018-12-02T00:12:47.370Z,11.03
2018-12-02T00:15:22.518Z,11.50
2018-12-02T00:17:51.990Z,12.68
2018-12-02T00:20:20.322Z,11.35
2018-12-02T00:22:48.650Z,10.80
2018-12-02T00:25:17.014Z,12.35
2018-12-02T00:27:46.697Z,11.48
2018-12-02T00:30:16.939Z,12.53
2018-12-02T00:32:45.250Z,11.40
2018-12-02T00:35:14.473Z,11.28
2018-12-02T00:37:43.730Z,10.50
2018-12-02T00:40:13.889Z,10.60
2018-12-02T00:42:43.485Z,10.65
2018-12-02T00:45:15.787Z,10.58
2018-12-02T00:47:44.137Z,10.40
2018-12-02T00:50:14.517Z,10.78
2018-12-02T00:52:43.710Z,11.00
2018-12-02T00:55:17.378Z,11.35
2018-12-02T00:57:45.693Z,10.70
2018-12-02T01:00:14.847Z,10.20
2018-12-02T01:02:44.154Z,10.78
2018-12-02T01:05:13.677Z,10.43
2018-12-02T01:07:41.973Z,10.28
2018-12-02T01:10:13.342Z,9.50
2018-12-02T01:12:41.666Z,8.65
2018-12-02T01:15:14.098Z,10.30
2018-12-02T01:17:42.542Z,9.65
2018-12-02T01:20:12.836Z,9.23
2018-12-02T01:22:41.165Z,8.30
2018-12-02T01:25:12.211Z,8.48
2018-12-02T01:27:40.643Z,7.62
2018-12-02T01:30:12.349Z,8.45
2018-12-02T01:32:41.023Z,8.18
2018-12-02T01:35:09.963Z,7.60
2018-12-02T01:37:38.302Z,7.08
2018-12-02T01:40:10.212Z,6.60
2018-12-02T01:42:38.514Z,6.55
2018-12-02T01:45:09.757Z,5.65
2018-12-02T01:47:38.070Z,6.62
2018-12-02T01:50:11.286Z,6.25
2018-12-02T01:52:39.614Z,5.53
2018-12-02T01:55:08.638Z,6.12
2018-12-02T01:57:37.898Z,5.08
2018-12-02T02:00:25.011Z,5.75
2018-12-02T02:02:53.974Z,4.97
2018-12-02T02:05:23.108Z,5.40
2018-12-02T02:07:51.422Z,4.28
2018-12-02T02:10:22.690Z,5.05
2018-12-02T02:12:50.982Z,4.90
2018-12-02T02:15:19.346Z,4.10
2018-12-02T02:17:47.931Z,4.90
2018-12-02T02:20:17.159Z,4.67
2018-12-02T02:22:45.953Z,4.60
2018-12-02T02:25:15.132Z,4.35
2018-12-02T02:27:44.562Z,4.87
2018-12-02T02:30:22.834Z,4.53
2018-12-02T02:32:51.173Z,4.60
2018-12-02T02:35:20.378Z,4.08
2018-12-02T02:37:49.501Z,5.03
2018-12-02T02:40:18.797Z,4.78
2018-12-02T02:42:47.127Z,5.10
2018-12-02T02:45:15.777Z,4.85
2018-12-02T02:47:44.286Z,4.80
2018-12-02T02:50:15.542Z,4.33
2018-12-02T02:52:45.172Z,4.67
2018-12-02T02:55:13.474Z,4.70
2018-12-02T02:57:41.818Z,4.28
2018-12-02T03:00:19.677Z,3.70
2018-12-02T03:02:47.995Z,3.60
2018-12-02T03:05:16.748Z,3.17
2018-12-02T03:07:45.083Z,3.40
2018-12-02T03:10:16.142Z,3.72
2018-12-02T03:12:45.519Z,2.65
2018-12-02T03:15:14.920Z,3.15
2018-12-02T03:17:43.626Z,2.90
2018-12-02T03:20:15.890Z,3.47
2018-12-02T03:22:45.238Z,3.40
2018-12-02T03:25:14.628Z,3.20
2018-12-02T03:27:42.945Z,2.92
2018-12-02T03:30:13.691Z,3.83
2018-12-02T03:32:42.016Z,2.62
2018-12-02T03:35:12.927Z,2.22
2018-12-02T03:37:41.277Z,3.45
2018-12-02T03:40:12.754Z,3.15
2018-12-02T03:42:41.079Z,2.95
2018-12-02T03:45:12.399Z,2.85
2018-12-02T03:47:40.739Z,3.37
2018-12-02T03:50:17.627Z,2.80
2018-12-02T03:52:43.538Z,2.35
2018-12-02T03:55:11.864Z,3.33
2018-12-02T03:57:40.195Z,3.58
2018-12-02T04:00:17.935Z,2.80
2018-12-02T04:02:46.322Z,3.50
2018-12-02T04:05:15.510Z,3.52
2018-12-02T04:07:43.831Z,2.60
2018-12-02T04:10:13.131Z,2.50
2018-12-02T04:12:41.447Z,2.90
2018-12-02T04:15:13.589Z,3.40
2018-12-02T04:17:42.405Z,2.50
2018-12-02T04:20:11.919Z,2.92
2018-12-02T04:22:40.325Z,3.90
2018-12-02T04:25:10.013Z,3.30
2018-12-02T04:27:38.325Z,3.55
2018-12-02T04:30:09.671Z,3.35
2018-12-02T04:32:37.991Z,4.15
2018-12-02T04:35:08.862Z,3.75
2018-12-02T04:37:37.198Z,4.30
2018-12-02T04:40:09.206Z,3.37
2018-12-02T04:42:37.532Z,4.30
2018-12-02T04:45:08.014Z,5.00
2018-12-02T04:47:36.338Z,4.72
2018-12-02T04:50:07.986Z,3.50
2018-12-02T04:52:36.312Z,4.00
2018-12-02T04:55:04.743Z,3.45
2018-12-02T04:57:33.046Z,3.30
2018-12-02T05:00:01.342Z,4.10
2018-12-02T05:02:29.659Z,4.00
2018-12-02T05:04:57.968Z,4.05
2018-12-02T05:07:26.289Z,3.50
2018-12-02T05:09:54.590Z,3.12
2018-12-02T05:12:22.914Z,3.70
2018-12-02T05:14:51.207Z,4.12
2018-12-02T05:17:19.622Z,3.47
2018-12-02T05:19:47.929Z,3.55
2018-12-02T05:22:16.243Z,3.90
2018-12-02T05:24:44.552Z,3.75
2018-12-02T05:27:12.864Z,3.60
2018-12-02T05:29:41.169Z,4.55
2018-12-02T05:32:09.502Z,3.72
2018-12-02T05:34:37.807Z,3.55
2018-12-02T05:37:06.126Z,4.28
2018-12-02T05:39:34.433Z,3.02
2018-12-02T05:42:08.246Z,4.03
2018-12-02T05:44:36.542Z,4.00
2018-12-02T05:47:04.972Z,5.62
2018-12-02T05:49:33.262Z,4.28
2018-12-02T05:52:01.590Z,3.35
2018-12-02T05:54:29.922Z,4.00
2018-12-02T05:56:58.393Z,3.77
2018-12-02T05:59:26.711Z,3.72
2018-12-02T06:01:55.007Z,4.30
2018-12-02T06:04:23.323Z,4.05
2018-12-02T06:06:51.607Z,4.83
2018-12-02T06:09:19.931Z,3.67
2018-12-02T06:11:48.239Z,3.22
2018-12-02T06:14:16.549Z,3.80
2018-12-02T06:16:44.837Z,3.95
2018-12-02T06:19:13.151Z,2.35
2018-12-02T06:21:41.438Z,3.20
2018-12-02T06:24:09.751Z,4.58
2018-12-02T06:26:38.057Z,3.80
2018-12-02T06:29:06.595Z,4.72
2018-12-02T06:31:34.898Z,4.50
2018-12-02T06:34:03.245Z,3.87
2018-12-02T06:36:31.543Z,3.05
2018-12-02T06:38:59.877Z,2.95
2018-12-02T06:41:28.166Z,3.42
2018-12-02T06:43:56.487Z,2.95
2018-12-02T06:46:24.892Z,3.45
2018-12-02T06:48:53.333Z,2.85
2018-12-02T06:51:21.635Z,2.47
2018-12-02T06:53:49.955Z,2.67
2018-12-02T06:56:23.630Z,2.55
2018-12-02T06:58:58.785Z,2.85
2018-12-02T07:01:34.331Z,2.70
2018-12-02T07:04:09.107Z,3.60
2018-12-02T07:06:37.398Z,3.12
2018-12-02T07:09:07.614Z,2.80
2018-12-02T07:11:35.951Z,3.30
2018-12-02T07:14:04.273Z,2.70
2018-12-02T07:16:32.566Z,2.45
2018-12-02T07:19:00.930Z,2.67
2018-12-02T07:21:29.218Z,2.85
2018-12-02T07:23:57.530Z,2.92
2018-12-02T07:26:25.837Z,3.33
2018-12-02T07:28:54.147Z,2.58
2018-12-02T07:31:22.470Z,2.70
2018-12-02T07:33:50.774Z,2.67
2018-12-02T07:36:19.150Z,2.45
2018-12-02T07:40:57.667Z,2.62
2018-12-02T07:43:26.005Z,2.22
2018-12-02T07:45:54.294Z,2.30
2018-12-02T07:48:22.666Z,2.55
2018-12-02T07:50:50.968Z,1.85
2018-12-02T07:53:19.274Z,2.42
2018-12-02T07:55:47.581Z,2.08
2018-12-02T07:58:16.526Z,1.85
2018-12-02T08:00:45.314Z,1.98
2018-12-02T08:03:13.632Z,2.10
2018-12-02T08:05:41.935Z,2.15
2018-12-02T08:08:10.579Z,1.90
2018-12-02T08:10:38.909Z,1.50
2018-12-02T08:13:07.299Z,1.92
2018-12-02T08:15:35.595Z,2.12
2018-12-02T08:18:03.902Z,2.30
2018-12-02T08:20:32.219Z,2.47
2018-12-02T08:23:00.533Z,3.15
2018-12-02T08:25:28.854Z,2.33
2018-12-02T08:27:57.268Z,4.12
2018-12-02T08:30:26.310Z,5.78
2018-12-02T08:32:55.525Z,3.12
2018-12-02T08:35:26.183Z,1.90
2018-12-02T08:37:57.093Z,2.77
2018-12-02T08:40:25.407Z,2.98
2018-12-02T08:42:53.697Z,2.22
2018-12-02T08:45:22.013Z,2.85
2018-12-02T08:47:50.311Z,1.82
2018-12-02T08:50:19.695Z,2.00
2018-12-02T08:52:49.297Z,2.10
2018-12-02T08:55:18.522Z,2.67
2018-12-02T08:57:47.615Z,2.02
2018-12-02T09:00:19.750Z,1.98
2018-12-02T09:02:52.474Z,2.62
2018-12-02T09:05:20.798Z,1.82
2018-12-02T09:07:49.119Z,2.00
2018-12-02T09:10:18.814Z,2.20
2018-12-02T09:12:47.894Z,1.52
2018-12-02T09:15:16.226Z,1.20
2018-12-02T09:17:44.514Z,1.77
2018-12-02T09:20:20.059Z,1.90
2018-12-02T09:22:49.728Z,0.98
2018-12-02T09:25:18.070Z,1.70
2018-12-02T09:27:46.419Z,1.95
2018-12-02T09:30:18.231Z,1.77
2018-12-02T09:32:46.552Z,1.47
2018-12-02T09:35:14.916Z,1.75
2018-12-02T09:37:43.221Z,1.40
2018-12-02T09:40:13.428Z,1.40
2018-12-02T09:42:45.638Z,1.10
2018-12-02T09:45:22.010Z,1.40
2018-12-02T09:47:50.301Z,1.40
2018-12-02T09:50:18.718Z,1.35
2018-12-02T09:52:47.055Z,1.52
2018-12-02T09:55:20.087Z,1.42
2018-12-02T09:57:48.444Z,1.27
2018-12-02T10:00:18.828Z,1.27
2018-12-02T10:02:47.122Z,2.08
2018-12-02T10:05:15.438Z,1.30
2018-12-02T10:07:43.729Z,1.30
2018-12-02T10:10:15.330Z,2.70
2018-12-02T10:12:44.927Z,1.72
2018-12-02T10:15:14.360Z,3.12
2018-12-02T10:17:42.650Z,7.95
2018-12-02T10:20:14.021Z,7.12
2018-12-02T10:22:42.611Z,2.50
2018-12-02T10:25:13.250Z,2.05
2018-12-02T10:27:41.556Z,1.87
2018-12-02T10:30:13.538Z,1.42
2018-12-02T10:32:41.830Z,2.77
2018-12-02T10:35:10.138Z,2.10
2018-12-02T10:37:38.465Z,1.60
2018-12-02T10:40:10.070Z,1.80
2018-12-02T10:42:38.386Z,5.00
2018-12-02T10:45:09.315Z,1.52
2018-12-02T10:47:37.630Z,1.65
2018-12-02T10:50:11.917Z,1.50
2018-12-02T10:52:40.402Z,1.30
2018-12-02T10:56:17.095Z,1.35
2018-12-02T10:58:45.389Z,1.75
2018-12-02T11:01:18.222Z,1.45
2018-12-02T11:03:47.398Z,1.50
2018-12-02T11:06:16.134Z,1.50
2018-12-02T11:08:44.574Z,1.72
2018-12-02T11:11:12.886Z,1.62
2018-12-02T11:13:41.184Z,1.20
2018-12-02T11:16:09.496Z,1.15
2018-12-02T11:18:37.786Z,1.60
2018-12-02T11:21:06.205Z,1.10
2018-12-02T11:23:34.584Z,1.10
2018-12-02T11:26:02.894Z,1.20
2018-12-02T11:28:31.183Z,1.22
2018-12-02T11:30:59.551Z,0.93
2018-12-02T11:33:27.842Z,1.15
2018-12-02T11:35:56.154Z,0.85
2018-12-02T11:38:24.470Z,1.07
2018-12-02T11:40:52.782Z,1.30
2018-12-02T11:43:21.070Z,1.12
2018-12-02T11:45:49.384Z,0.88
2018-12-02T11:48:17.674Z,1.17
2018-12-02T11:50:45.985Z,1.20
2018-12-02T11:53:14.362Z,0.90
2018-12-02T11:55:42.675Z,1.05
2018-12-02T11:58:10.966Z,1.20
2018-12-02T12:00:40.418Z,1.10
2018-12-02T12:03:08.709Z,0.80
2018-12-02T12:05:37.810Z,1.20
2018-12-02T12:08:08.046Z,1.32
2018-12-02T12:10:36.417Z,1.10
2018-12-02T12:13:04.858Z,0.78
2018-12-02T12:15:33.326Z,1.30
2018-12-02T12:18:01.663Z,1.30
2018-12-02T12:20:44.378Z,0.80
2018-12-02T12:23:18.345Z,1.85
2018-12-02T12:25:46.659Z,1.27
2018-12-02T12:28:14.964Z,1.40
2018-12-02T12:30:43.946Z,4.20
2018-12-02T12:33:12.390Z,1.75
2018-12-02T12:35:42.615Z,1.92
2018-12-02T12:38:10.919Z,1.40
2018-12-02T12:40:39.873Z,1.20
2018-12-02T12:43:10.398Z,1.77
2018-12-02T12:45:38.718Z,1.50
2018-12-02T12:48:07.030Z,1.00
2018-12-02T12:50:35.356Z,0.88
2018-12-02T12:53:03.653Z,1.50
2018-12-02T12:55:31.963Z,1.05
2018-12-02T12:58:00.258Z,0.80
2018-12-02T13:00:28.602Z,1.12
2018-12-02T13:02:56.891Z,0.80
2018-12-02T13:05:26.045Z,1.02
2018-12-02T13:07:55.036Z,1.00
2018-12-02T13:10:23.358Z,1.10
2018-12-02T13:12:51.658Z,1.20
2018-12-02T13:15:21.031Z,0.95
2018-12-02T13:17:55.682Z,1.22
2018-12-02T13:20:25.205Z,1.30
2018-12-02T13:22:53.543Z,1.50
2018-12-02T13:25:21.836Z,1.12
2018-12-02T13:27:50.285Z,2.12
2018-12-02T13:30:19.442Z,1.95
2018-12-02T13:32:49.682Z,1.30
2018-12-02T13:35:17.990Z,2.02
2018-12-02T13:39:58.075Z,1.90
2018-12-02T13:42:26.390Z,1.47
2018-12-02T13:44:54.689Z,3.20
2018-12-02T13:47:23.062Z,1.25
2018-12-02T13:49:51.367Z,1.50
2018-12-02T13:52:20.845Z,3.40
2018-12-02T13:54:49.406Z,3.27
2018-12-02T13:57:17.755Z,2.85
2018-12-02T13:59:46.055Z,2.10
2018-12-02T14:02:14.371Z,1.52
2018-12-02T14:04:42.681Z,2.50
2018-12-02T14:07:10.998Z,0.80
2018-12-02T14:09:39.443Z,2.30
2018-12-02T14:12:07.767Z,2.15
2018-12-02T14:14:38.842Z,1.45
2018-12-02T14:17:11.465Z,1.15
2018-12-02T14:19:40.954Z,2.08
2018-12-02T14:22:09.267Z,1.17
2018-12-02T14:24:37.591Z,2.40
2018-12-02T14:27:07.067Z,1.27
2018-12-02T14:29:46.170Z,1.02
2018-12-02T14:32:15.968Z,1.50
2018-12-02T14:34:44.277Z,2.08
2018-12-02T14:37:12.601Z,1.30
2018-12-02T14:39:40.997Z,2.60
2018-12-02T14:42:09.306Z,1.35
2018-12-02T14:44:37.601Z,1.42
2018-12-02T14:47:06.284Z,1.22
2018-12-02T14:49:34.612Z,1.75
2018-12-02T14:52:02.938Z,0.85
2018-12-02T14:54:31.230Z,2.10
2018-12-02T14:56:59.542Z,1.90
2018-12-02T14:59:27.828Z,1.42
2018-12-02T15:01:56.471Z,1.32
2018-12-02T15:04:24.761Z,2.15
2018-12-02T15:06:53.718Z,0.85
2018-12-02T15:09:22.159Z,1.07
2018-12-02T15:11:54.711Z,1.20
2018-12-02T15:14:23.009Z,0.90
2018-12-02T15:16:51.322Z,0.80
2018-12-02T15:19:19.614Z,1.20
2018-12-02T15:21:47.931Z,1.10
2018-12-02T15:24:16.230Z,1.17
2018-12-02T15:26:44.543Z,1.60
2018-12-02T15:29:12.833Z,1.32
2018-12-02T15:31:41.144Z,1.45
2018-12-02T15:34:09.441Z,2.35
2018-12-02T15:36:37.747Z,1.75
2018-12-02T15:39:09.355Z,1.25
2018-12-02T15:41:37.819Z,1.40
2018-12-02T15:44:06.770Z,1.22
2018-12-02T15:46:35.107Z,1.40
2018-12-02T15:49:03.531Z,1.50
2018-12-02T15:51:31.835Z,1.20
2018-12-02T15:54:00.146Z,1.60
2018-12-02T15:56:28.441Z,1.55
2018-12-02T15:58:56.750Z,1.60
2018-12-02T16:01:25.042Z,1.15
2018-12-02T16:03:53.349Z,1.20
2018-12-02T16:06:21.653Z,1.77
2018-12-02T16:08:50.022Z,1.40
2018-12-02T16:11:18.323Z,1.22
2018-12-02T16:13:46.714Z,0.90
2018-12-02T16:16:15.002Z,0.80
2018-12-02T16:18:43.350Z,1.02
2018-12-02T16:21:11.630Z,1.32
2018-12-02T16:23:39.943Z,1.00
2018-12-02T16:26:08.236Z,1.50
2018-12-02T16:28:36.552Z,1.85
2018-12-02T16:31:04.883Z,2.98
2018-12-02T16:33:33.199Z,2.22
2018-12-02T16:36:01.503Z,2.20
2018-12-02T16:38:29.834Z,2.95
2018-12-02T16:40:58.285Z,6.33
2018-12-02T16:43:26.600Z,4.40
2018-12-02T16:45:54.900Z,4.17
2018-12-02T16:48:23.219Z,2.65
2018-12-02T16:50:51.574Z,2.08
2018-12-02T16:53:23.781Z,2.80
2018-12-02T16:56:01.601Z,2.12
2018-12-02T16:58:39.123Z,1.72
2018-12-02T17:01:17.945Z,1.70
2018-12-02T17:03:46.641Z,1.85
2018-12-02T17:06:14.976Z,1.90
2018-12-02T17:08:43.287Z,2.25
2018-12-02T17:11:11.586Z,1.95
2018-12-02T17:13:39.903Z,1.95
2018-12-02T17:16:08.228Z,1.45
2018-12-02T17:18:36.579Z,1.32
2018-12-02T17:21:05.258Z,2.05
2018-12-02T17:23:33.570Z,1.82
2018-12-02T17:26:01.857Z,1.42
2018-12-02T17:28:30.166Z,1.50
2018-12-02T17:31:03.862Z,1.80
2018-12-02T17:33:32.182Z,2.27
2018-12-02T17:36:00.496Z,1.50
2018-12-02T17:38:28.872Z,2.00
2018-12-02T17:40:57.823Z,2.08
2018-12-02T17:43:26.286Z,2.58
2018-12-02T17:45:54.671Z,2.95
2018-12-02T17:48:23.000Z,1.57
2018-12-02T17:50:51.303Z,2.50
2018-12-02T17:53:19.623Z,1.55
2018-12-02T17:55:47.957Z,1.75
2018-12-02T17:58:16.314Z,1.20
2018-12-02T18:00:44.611Z,1.60
2018-12-02T18:03:15.826Z,1.57
2018-12-02T18:05:45.435Z,1.90
2018-12-02T18:08:13.778Z,1.42
2018-12-02T18:10:42.174Z,1.57
2018-12-02T18:13:10.514Z,1.65
2018-12-02T18:22:37.870Z,1.70
2018-12-02T18:25:08.568Z,2.00
2018-12-02T18:27:36.882Z,1.25
2018-12-02T18:30:19.471Z,1.35
2018-12-02T18:32:48.826Z,1.77
2018-12-02T18:35:25.601Z,2.15
2018-12-02T18:37:56.155Z,1.92
2018-12-02T18:40:24.470Z,1.70
2018-12-02T18:42:52.890Z,2.05
2018-12-02T18:45:21.214Z,2.17
2018-12-02T18:47:50.067Z,1.77
2018-12-02T18:50:18.426Z,1.40
2018-12-02T18:52:47.038Z,1.87
2018-12-02T18:55:15.349Z,1.70
2018-12-02T18:57:43.630Z,1.62
2018-12-02T19:00:19.323Z,1.10
2018-12-02T19:02:48.875Z,2.08
2018-12-02T19:05:17.187Z,2.42
2018-12-02T19:07:45.534Z,1.50
2018-12-02T19:10:18.485Z,1.30
2018-12-02T19:12:46.777Z,1.55
2018-12-02T19:15:15.596Z,1.32
2018-12-02T19:17:44.370Z,1.45
2018-12-02T19:20:19.202Z,1.40
2018-12-02T19:22:48.874Z,1.95
2018-12-02T19:25:18.567Z,1.90
2018-12-02T19:27:46.887Z,1.55
2018-12-02T19:30:16.258Z,1.57
2018-12-02T19:32:45.167Z,1.80
2018-12-02T19:35:35.307Z,1.40
2018-12-02T19:38:07.342Z,1.60
2018-12-02T19:40:35.654Z,2.40
2018-12-02T19:43:04.067Z,2.30
2018-12-02T19:45:32.381Z,2.08
2018-12-02T19:48:00.665Z,2.00
2018-12-02T19:50:28.987Z,2.17
2018-12-02T19:53:03.998Z,2.00
2018-12-02T19:55:32.382Z,2.85
2018-12-02T19:58:00.649Z,1.50
2018-12-02T20:00:34.399Z,2.60
2018-12-02T20:03:02.691Z,2.22
2018-12-02T20:05:31.078Z,2.60
2018-12-02T20:08:00.830Z,2.90
2018-12-02T20:10:30.509Z,3.25
2018-12-02T20:13:07.162Z,3.98
2018-12-02T20:15:35.554Z,4.40
2018-12-02T20:18:03.867Z,4.33
2018-12-02T20:20:39.168Z,3.90
2018-12-02T20:23:07.665Z,3.83
2018-12-02T20:25:36.130Z,4.50
2018-12-02T20:28:06.090Z,4.35
2018-12-02T20:30:34.690Z,4.65
2018-12-02T20:33:03.001Z,5.15
2018-12-02T20:35:31.328Z,4.53
2018-12-02T20:37:59.683Z,5.78
2018-12-02T20:40:28.022Z,6.00
2018-12-02T20:42:56.331Z,7.80
2018-12-02T20:45:24.649Z,4.95
2018-12-02T20:47:52.954Z,6.80
2018-12-02T20:50:21.274Z,6.70
2018-12-02T20:52:49.781Z,7.30
2018-12-02T20:55:20.198Z,5.60
2018-12-02T20:57:48.974Z,2.70
2018-12-02T21:00:19.122Z,5.78
2018-12-02T21:03:22.211Z,6.45
2018-12-02T21:06:02.003Z,5.58
2018-12-02T21:08:30.312Z,6.47
2018-12-02T21:10:58.650Z,7.87
2018-12-02T21:13:26.964Z,5.00
2018-12-02T21:15:55.288Z,8.60
2018-12-02T21:18:23.590Z,6.85
2018-12-02T21:20:51.913Z,6.42
2018-12-02T21:23:20.219Z,5.05
2018-12-02T21:25:49.210Z,5.17
2018-12-02T21:28:18.802Z,3.12
2018-12-02T21:30:47.136Z,5.67
2018-12-02T21:33:15.439Z,3.05
2018-12-02T21:35:43.767Z,4.97
2018-12-02T21:38:12.089Z,4.40
2018-12-02T21:40:40.429Z,4.75
2018-12-02T21:43:08.730Z,4.50
2018-12-02T21:45:37.049Z,2.20
2018-12-02T21:48:08.046Z,3.17
2018-12-02T21:50:36.363Z,3.92
2018-12-02T21:53:04.677Z,4.42
2018-12-02T21:55:35.171Z,3.40
2018-12-02T21:58:03.549Z,3.35
2018-12-02T22:00:37.269Z,4.60
2018-12-02T22:03:05.595Z,3.92
2018-12-02T22:05:33.930Z,3.55
2018-12-02T22:08:02.226Z,4.75
2018-12-02T22:10:31.720Z,4.20
2018-12-02T22:13:00.043Z,4.22
2018-12-02T22:15:28.357Z,3.55
2018-12-02T22:17:56.679Z,4.62
2018-12-02T22:20:25.051Z,2.20
2018-12-02T22:22:53.369Z,3.15
2018-12-02T22:25:22.779Z,3.47
2018-12-02T22:27:53.339Z,1.75
2018-12-02T22:30:22.735Z,2.70
2018-12-02T22:32:51.219Z,3.50
2018-12-02T22:35:19.535Z,3.42
2018-12-02T22:37:48.106Z,1.20
2018-12-02T22:40:18.556Z,3.40
2018-12-02T22:42:46.863Z,3.10
2018-12-02T22:45:17.389Z,2.70
2018-12-02T22:47:45.687Z,3.65
2018-12-02T22:50:15.198Z,3.77
2018-12-02T22:52:44.078Z,3.17
2018-12-02T22:55:12.650Z,3.90
2018-12-02T22:57:40.941Z,3.20
2018-12-02T23:00:17.802Z,2.52
2018-12-02T23:02:53.102Z,3.20
2018-12-02T23:05:21.501Z,3.33
2018-12-02T23:07:49.815Z,2.50
2018-12-02T23:10:18.136Z,3.02
2018-12-02T23:12:46.462Z,3.05
2018-12-02T23:15:14.782Z,3.52
2018-12-02T23:17:43.081Z,3.20
2018-12-02T23:20:12.118Z,2.92
2018-12-02T23:22:40.446Z,2.55
2018-12-02T23:25:10.309Z,2.15
2018-12-02T23:27:38.635Z,2.70
2018-12-02T23:30:13.226Z,2.70
2018-12-02T23:32:41.569Z,1.90
2018-12-02T23:35:09.915Z,1.95
2018-12-02T23:37:38.246Z,1.95
2018-12-02T23:40:10.386Z,2.00
2018-12-02T23:42:38.838Z,2.00
2018-12-02T23:45:10.942Z,1.40
2018-12-02T23:47:39.246Z,1.60
2018-12-02T23:50:15.519Z,1.35
2018-12-02T23:52:43.882Z,1.25
2018-12-02T23:55:14.147Z,1.25
2018-12-02T23:57:42.494Z,1.12
